Time;durP1;ratioP1;P1;durP2;ratioP2;P2;SDS_P1;SDS_P2;PMS_P1;PMS_P2;Temp;Humidity;BMP_temperature;BMP_pressure;BME280_temperature;BME280_humidity;BME280_pressure;Samples;Min_cycle;Max_cycle;Signal;HPM_P1;HPM_P2
2021/11/26 00:01:40;;;;;;;1.90;0.83;;;1.20;99.90;;;;;;5033670;28;20442;-80
2021/11/26 00:04:08;;;;;;;0.30;0.30;;;1.20;99.90;;;;;;5033915;28;20431;-80
2021/11/26 00:06:35;;;;;;;2.77;2.67;;;1.20;99.90;;;;;;5034157;28;20434;-80
2021/11/26 00:09:02;;;;;;;2.00;1.70;;;1.20;99.90;;;;;;5033975;28;20475;-80
2021/11/26 00:11:29;;;;;;;0.30;0.30;;;1.20;99.90;;;;;;5033491;28;20953;-80
2021/11/26 00:14:04;;;;;;;0.37;0.33;;;1.20;99.90;;;;;;5033769;28;20450;-80
2021/11/26 00:16:35;;;;;;;0.30;0.30;;;1.20;99.90;;;;;;5033475;28;20486;-80
2021/11/26 00:19:04;;;;;;;1.07;1.07;;;1.30;99.90;;;;;;5033707;28;20474;-80
2021/11/26 00:21:31;;;;;;;0.30;0.30;;;1.30;99.90;;;;;;5033843;28;20504;-80
2021/11/26 00:23:58;;;;;;;0.80;0.80;;;1.30;99.90;;;;;;5033537;28;20805;-80
2021/11/26 00:26:25;;;;;;;1.70;0.57;;;1.30;99.90;;;;;;5033387;28;20454;-80
2021/11/26 00:28:52;;;;;;;1.33;1.33;;;1.30;99.90;;;;;;5033487;28;20439;-80
2021/11/26 00:31:20;;;;;;;0.93;0.93;;;1.30;99.90;;;;;;5033132;28;21004;-80
2021/11/26 00:33:47;;;;;;;0.40;0.40;;;1.30;99.90;;;;;;5033485;28;20466;-80
2021/11/26 00:36:14;;;;;;;0.70;0.70;;;1.30;99.90;;;;;;5033522;28;20925;-80
2021/11/26 00:38:40;;;;;;;0.87;0.87;;;1.30;99.90;;;;;;5033343;28;20461;-80
2021/11/26 00:41:07;;;;;;;0.50;0.50;;;1.30;99.90;;;;;;5033374;28;20454;-80
2021/11/26 00:43:34;;;;;;;0.57;0.57;;;1.30;99.90;;;;;;5033433;28;20478;-80
2021/11/26 00:46:01;;;;;;;0.40;0.40;;;1.30;99.90;;;;;;5033081;28;20992;-80
2021/11/26 00:48:29;;;;;;;1.40;1.40;;;1.30;99.90;;;;;;5033374;28;20447;-80
2021/11/26 00:50:56;;;;;;;2.50;2.40;;;1.30;99.90;;;;;;5032910;28;20455;-80
2021/11/26 00:53:23;;;;;;;0.30;0.30;;;1.30;99.90;;;;;;5033048;28;20441;-80
2021/11/26 00:55:50;;;;;;;0.47;0.47;;;1.40;99.90;;;;;;5033230;28;20885;-80
2021/11/26 00:58:16;;;;;;;0.37;0.37;;;1.30;99.90;;;;;;5037375;28;20465;-80
2021/11/26 01:00:43;;;;;;;1.00;1.00;;;1.40;99.90;;;;;;5037248;28;20478;-80
2021/11/26 01:03:10;;;;;;;0.30;0.30;;;1.40;99.90;;;;;;5037499;28;20450;-80
2021/11/26 01:05:38;;;;;;;1.13;0.60;;;1.40;99.90;;;;;;5037218;28;20449;-80
2021/11/26 01:08:05;;;;;;;0.30;0.20;;;1.40;99.90;;;;;;5037356;28;20462;-80
2021/11/26 01:10:32;;;;;;;0.30;0.30;;;1.30;99.90;;;;;;5036778;28;20981;-79
2021/11/26 01:12:59;;;;;;;0.40;0.40;;;1.30;99.90;;;;;;5037042;28;20520;-79
2021/11/26 01:15:29;;;;;;;0.50;0.50;;;1.30;99.90;;;;;;5036898;28;20530;-80
2021/11/26 01:17:56;;;;;;;0.90;0.90;;;1.30;99.90;;;;;;5036746;28;20435;-80
2021/11/26 01:20:25;;;;;;;0.80;0.80;;;1.30;99.90;;;;;;5036595;28;21012;-80
2021/11/26 01:22:54;;;;;;;0.80;0.80;;;1.30;99.90;;;;;;5036938;28;20470;-80
2021/11/26 01:25:21;;;;;;;1.47;1.37;;;1.40;99.90;;;;;;5036884;28;20446;-80
2021/11/26 01:27:48;;;;;;;1.43;0.73;;;1.40;99.90;;;;;;5036494;28;20942;-80
2021/11/26 01:30:22;;;;;;;0.63;0.63;;;1.40;99.90;;;;;;5036705;28;20467;-79
2021/11/26 01:32:50;;;;;;;0.93;0.93;;;1.30;99.90;;;;;;5036757;28;20470;-79
2021/11/26 01:35:17;;;;;;;0.80;0.80;;;1.40;99.90;;;;;;5036367;28;20447;-80
2021/11/26 01:37:44;;;;;;;1.43;1.43;;;1.30;99.90;;;;;;5036574;28;20458;-80
2021/11/26 01:40:14;;;;;;;0.90;0.90;;;1.30;99.90;;;;;;5036465;28;20463;-80
2021/11/26 01:42:42;;;;;;;4.23;1.27;;;1.30;99.90;;;;;;5036300;28;20454;-79
2021/11/26 01:45:10;;;;;;;0.93;0.93;;;1.40;99.90;;;;;;5036487;28;20450;-80
2021/11/26 01:47:37;;;;;;;0.30;0.30;;;1.40;99.90;;;;;;5036464;28;20447;-80
2021/11/26 01:50:05;;;;;;;0.30;0.30;;;1.30;99.90;;;;;;5036086;28;20459;-80
2021/11/26 01:52:33;;;;;;;0.43;0.43;;;1.40;99.90;;;;;;5036317;28;20489;-80
2021/11/26 01:54:59;;;;;;;2.20;2.10;;;1.40;99.90;;;;;;5036331;28;20930;-80
2021/11/26 01:57:27;;;;;;;0.70;0.50;;;1.40;99.90;;;;;;5036286;28;20453;-80
2021/11/26 01:59:54;;;;;;;1.03;0.93;;;1.40;99.90;;;;;;5036166;28;20473;-80
2021/11/26 02:02:22;;;;;;;0.73;0.73;;;1.30;99.90;;;;;;5036253;28;20818;-81
2021/11/26 02:04:48;;;;;;;1.40;1.30;;;1.40;99.90;;;;;;5036191;28;20434;-81
2021/11/26 02:07:15;;;;;;;0.67;0.67;;;1.30;99.90;;;;;;5035310;28;20442;-81
2021/11/26 02:09:42;;;;;;;0.50;0.50;;;1.40;99.90;;;;;;5035206;28;20455;-82
2021/11/26 02:12:09;;;;;;;0.30;0.30;;;1.30;99.90;;;;;;5036740;28;20800;-82
2021/11/26 02:14:38;;;;;;;6.53;0.60;;;1.30;99.90;;;;;;5036673;28;20435;-81
2021/11/26 02:17:05;;;;;;;0.40;0.40;;;1.30;99.90;;;;;;5035724;28;20486;-82
2021/11/26 02:19:31;;;;;;;0.30;0.30;;;1.40;99.90;;;;;;5035820;28;20470;-81
2021/11/26 02:21:59;;;;;;;0.30;0.30;;;1.40;99.90;;;;;;5036067;28;20442;-81
2021/11/26 02:24:26;;;;;;;0.90;0.60;;;1.40;99.90;;;;;;5035840;28;20454;-81
2021/11/26 02:26:53;;;;;;;0.57;0.57;;;1.30;99.90;;;;;;5035726;28;20459;-82
2021/11/26 02:29:21;;;;;;;0.60;0.60;;;1.30;99.90;;;;;;5035667;28;20477;-82
2021/11/26 02:31:48;;;;;;;1.40;0.93;;;1.30;99.90;;;;;;5035335;28;20481;-81
2021/11/26 02:34:15;;;;;;;0.70;0.70;;;1.30;99.90;;;;;;5035571;28;20454;-82
2021/11/26 02:36:43;;;;;;;0.50;0.50;;;1.30;99.90;;;;;;5035852;28;20452;-81
2021/11/26 02:39:12;;;;;;;0.50;0.50;;;1.30;99.90;;;;;;5035465;28;20501;-82
2021/11/26 02:41:40;;;;;;;0.87;0.87;;;1.30;99.90;;;;;;5035480;28;20450;-81
2021/11/26 02:44:07;;;;;;;0.60;0.60;;;1.30;99.90;;;;;;5035465;28;20897;-82
2021/11/26 02:46:35;;;;;;;0.30;0.30;;;1.30;99.90;;;;;;5035224;28;20434;-81
2021/11/26 02:49:02;;;;;;;1.27;0.83;;;1.40;99.90;;;;;;5035028;28;20466;-81
2021/11/26 02:51:29;;;;;;;0.50;0.50;;;1.30;99.90;;;;;;5035270;28;20446;-82
2021/11/26 02:53:56;;;;;;;1.07;0.70;;;1.30;99.90;;;;;;5035300;28;20481;-82
2021/11/26 02:56:24;;;;;;;0.87;0.87;;;1.30;99.90;;;;;;5035185;28;20451;-82
2021/11/26 02:58:51;;;;;;;0.30;0.30;;;1.30;99.90;;;;;;5035095;28;20455;-81
2021/11/26 03:01:18;;;;;;;0.87;0.87;;;1.30;99.90;;;;;;5035095;28;20820;-81
2021/11/26 03:03:44;;;;;;;0.50;0.50;;;1.30;99.90;;;;;;5034732;28;20937;-81
2021/11/26 03:06:11;;;;;;;1.67;0.87;;;1.30;99.90;;;;;;5035031;28;20457;-82
2021/11/26 03:08:38;;;;;;;1.47;1.47;;;1.30;99.90;;;;;;5035557;28;20824;-82
2021/11/26 03:11:06;;;;;;;0.40;0.40;;;1.30;99.90;;;;;;5034604;28;20946;-81
2021/11/26 03:13:35;;;;;;;0.40;0.40;;;1.40;99.90;;;;;;5034583;28;20489;-81
2021/11/26 03:16:02;;;;;;;0.30;0.30;;;1.40;99.90;;;;;;5035029;28;20822;-87
2021/11/26 03:18:28;;;;;;;0.30;0.30;;;1.40;99.90;;;;;;5035496;28;20465;-87
2021/11/26 03:20:57;;;;;;;0.30;0.30;;;1.30;99.90;;;;;;5034855;28;20462;-87
2021/11/26 03:23:24;;;;;;;0.40;0.40;;;1.30;99.90;;;;;;5035059;28;20482;-88
2021/11/26 03:25:51;;;;;;;1.20;1.20;;;1.40;99.90;;;;;;5035470;28;20836;-88
2021/11/26 03:28:18;;;;;;;0.70;0.70;;;1.40;99.90;;;;;;5034894;28;20442;-88
2021/11/26 03:30:48;;;;;;;0.30;0.30;;;1.40;99.90;;;;;;5035233;28;20473;-87
2021/11/26 03:33:15;;;;;;;0.77;0.77;;;1.30;99.90;;;;;;5035039;28;20501;-87
2021/11/26 03:35:42;;;;;;;0.30;0.30;;;1.30;99.90;;;;;;5035085;28;20462;-87
2021/11/26 03:38:09;;;;;;;0.30;0.30;;;1.30;99.90;;;;;;5034838;28;20442;-88
2021/11/26 03:40:35;;;;;;;0.73;0.73;;;1.40;99.90;;;;;;5035221;28;20482;-87
2021/11/26 03:43:02;;;;;;;0.30;0.30;;;1.40;99.90;;;;;;5034932;28;20450;-87
2021/11/26 03:45:30;;;;;;;0.40;0.40;;;1.40;99.90;;;;;;5035089;28;20942;-88
2021/11/26 03:47:59;;;;;;;1.00;1.00;;;1.30;99.90;;;;;;5034871;28;20454;-87
2021/11/26 03:50:28;;;;;;;0.50;0.50;;;1.30;99.90;;;;;;5034859;28;20498;-88
2021/11/26 03:52:55;;;;;;;0.67;0.57;;;1.30;99.90;;;;;;5034797;28;20524;-87
2021/11/26 03:55:24;;;;;;;1.60;0.53;;;1.30;99.90;;;;;;5034565;28;20447;-87
2021/11/26 03:57:51;;;;;;;0.40;0.40;;;1.30;99.90;;;;;;5034985;28;20443;-88
2021/11/26 04:00:20;;;;;;;4.10;1.17;;;1.30;99.90;;;;;;5034648;28;20467;-88
2021/11/26 04:02:47;;;;;;;0.80;0.80;;;1.30;99.90;;;;;;5034847;28;20446;-87
2021/11/26 04:05:15;;;;;;;0.50;0.50;;;1.40;99.90;;;;;;5034578;28;20455;-88
2021/11/26 04:07:43;;;;;;;1.57;1.47;;;1.40;99.90;;;;;;5034749;28;20458;-87
2021/11/26 04:10:11;;;;;;;0.57;0.57;;;1.40;99.90;;;;;;5034483;28;21015;-87
2021/11/26 04:12:38;;;;;;;2.50;1.30;;;1.40;99.90;;;;;;5039587;28;20482;-87
2021/11/26 04:15:07;;;;;;;0.50;0.50;;;1.40;99.90;;;;;;5045304;28;20462;-87
2021/11/26 04:17:34;;;;;;;2.03;1.27;;;1.40;99.90;;;;;;5046197;28;20458;-87
2021/11/26 04:20:00;;;;;;;1.70;1.50;;;1.40;99.90;;;;;;5040992;28;20471;-87
2021/11/26 04:22:29;;;;;;;0.90;0.90;;;1.40;99.90;;;;;;5034470;28;20447;-87
2021/11/26 04:24:55;;;;;;;0.43;0.43;;;1.30;99.90;;;;;;5034548;28;20446;-88
2021/11/26 04:27:22;;;;;;;0.80;0.80;;;1.30;99.90;;;;;;5034457;28;20453;-87
2021/11/26 04:29:49;;;;;;;0.50;0.40;;;1.20;99.90;;;;;;5034210;28;20459;-87
2021/11/26 04:32:16;;;;;;;0.30;0.30;;;1.20;99.90;;;;;;5033786;28;20450;-87
2021/11/26 04:34:44;;;;;;;0.30;0.30;;;1.20;99.90;;;;;;5034325;28;20458;-87
2021/11/26 04:37:11;;;;;;;0.60;0.57;;;1.10;99.90;;;;;;5034335;28;20446;-87
2021/11/26 04:39:39;;;;;;;0.67;0.67;;;1.10;99.90;;;;;;5034190;28;20425;-87
2021/11/26 04:42:06;;;;;;;0.77;0.73;;;1.10;99.90;;;;;;5034171;28;20462;-88
2021/11/26 04:44:33;;;;;;;0.57;0.57;;;1.10;99.90;;;;;;5035548;28;20446;-88
2021/11/26 04:46:59;;;;;;;0.40;0.40;;;1.10;99.90;;;;;;5034347;28;20465;-87
2021/11/26 04:49:26;;;;;;;0.30;0.20;;;1.20;99.90;;;;;;5049601;28;20459;-86
2021/11/26 04:51:53;;;;;;;1.03;1.03;;;1.10;99.90;;;;;;5053210;28;20526;-87
2021/11/26 04:54:20;;;;;;;1.13;1.13;;;1.10;99.90;;;;;;5034146;28;20493;-86
2021/11/26 04:56:48;;;;;;;0.40;0.40;;;1.10;99.90;;;;;;5033645;28;20455;-87
2021/11/26 04:59:15;;;;;;;1.23;1.23;;;1.10;99.90;;;;;;5033867;28;20466;-87
2021/11/26 05:01:42;;;;;;;0.40;0.40;;;1.20;99.90;;;;;;5033481;28;20453;-87
2021/11/26 05:04:08;;;;;;;0.40;0.33;;;1.20;99.90;;;;;;5033935;28;20450;-87
2021/11/26 05:06:36;;;;;;;0.30;0.30;;;1.20;99.90;;;;;;5033542;28;20449;-87
2021/11/26 05:09:06;;;;;;;0.30;0.30;;;1.20;99.90;;;;;;5033611;28;20471;-87
2021/11/26 05:11:33;;;;;;;0.30;0.30;;;1.10;99.90;;;;;;5033662;28;20455;-87
2021/11/26 05:14:03;;;;;;;0.33;0.33;;;1.00;99.90;;;;;;5033478;28;20493;-87
2021/11/26 05:16:30;;;;;;;0.50;0.50;;;0.90;99.90;;;;;;5033400;28;20457;-87
2021/11/26 05:18:58;;;;;;;0.40;0.40;;;0.90;99.90;;;;;;5033419;28;20446;-87
2021/11/26 05:21:25;;;;;;;0.40;0.40;;;0.90;99.90;;;;;;5033684;28;20454;-87
2021/11/26 05:23:53;;;;;;;1.00;0.70;;;0.80;99.90;;;;;;5036425;28;20447;-86
2021/11/26 05:26:20;;;;;;;0.40;0.40;;;0.80;99.90;;;;;;5039069;28;20453;-87
2021/11/26 05:28:47;;;;;;;2.23;2.13;;;0.90;99.90;;;;;;5033730;28;20457;-87
2021/11/26 05:31:15;;;;;;;1.33;1.17;;;0.90;99.90;;;;;;5033695;28;20458;-87
2021/11/26 05:33:42;;;;;;;4.63;0.67;;;0.90;99.90;;;;;;5033470;28;20472;-87
2021/11/26 05:36:09;;;;;;;0.40;0.40;;;0.90;99.90;;;;;;5033444;28;20461;-87
2021/11/26 05:38:35;;;;;;;0.60;0.60;;;0.90;99.90;;;;;;5033274;28;20455;-87
2021/11/26 05:41:02;;;;;;;0.83;0.83;;;1.00;99.90;;;;;;5033151;28;20840;-87
2021/11/26 05:43:29;;;;;;;0.30;0.30;;;1.00;99.90;;;;;;5036066;28;20904;-87
2021/11/26 05:45:56;;;;;;;0.53;0.53;;;1.00;99.90;;;;;;5036904;28;20441;-87
2021/11/26 05:48:24;;;;;;;0.40;0.40;;;1.00;99.90;;;;;;5036935;28;20459;-87
2021/11/26 05:50:51;;;;;;;2.53;2.33;;;1.00;99.90;;;;;;5036959;28;20466;-86
2021/11/26 05:53:17;;;;;;;0.70;0.57;;;1.10;99.90;;;;;;5036903;28;20485;-87
2021/11/26 05:55:44;;;;;;;0.47;0.47;;;1.10;99.90;;;;;;5036887;28;20810;-87
2021/11/26 05:58:11;;;;;;;0.50;0.50;;;1.20;99.90;;;;;;5036790;28;20424;-82
2021/11/26 06:00:38;;;;;;;0.30;0.30;;;1.20;99.90;;;;;;5036218;28;20458;-81
2021/11/26 06:03:05;;;;;;;0.57;0.57;;;1.20;99.90;;;;;;5036222;28;20446;-81
2021/11/26 06:05:33;;;;;;;1.00;0.60;;;1.20;99.90;;;;;;5036427;28;20421;-81
2021/11/26 06:08:00;;;;;;;0.30;0.30;;;1.20;99.90;;;;;;5035954;28;20805;-81
2021/11/26 06:10:27;;;;;;;0.40;0.33;;;1.20;99.90;;;;;;5035941;28;20470;-81
2021/11/26 06:12:54;;;;;;;0.60;0.60;;;1.20;99.90;;;;;;5036040;28;20479;-81
2021/11/26 06:15:22;;;;;;;0.67;0.67;;;1.20;99.90;;;;;;5035685;28;20508;-81
2021/11/26 06:17:48;;;;;;;1.80;1.07;;;1.30;99.90;;;;;;5036544;28;20442;-81
2021/11/26 06:20:16;;;;;;;0.40;0.40;;;1.30;99.90;;;;;;5035824;28;20486;-81
2021/11/26 06:22:45;;;;;;;2.70;2.17;;;1.30;99.90;;;;;;5035896;28;20442;-81
2021/11/26 06:25:15;;;;;;;0.80;0.80;;;1.30;99.90;;;;;;5035778;28;20425;-81
2021/11/26 06:27:42;;;;;;;0.77;0.73;;;1.30;99.90;;;;;;5035526;28;20792;-81
2021/11/26 06:30:11;;;;;;;0.53;0.53;;;1.30;99.90;;;;;;5035333;28;20477;-81
2021/11/26 06:32:38;;;;;;;0.40;0.40;;;1.20;99.90;;;;;;5035707;28;20639;-81
2021/11/26 06:35:06;;;;;;;0.40;0.40;;;1.20;99.90;;;;;;5035652;28;20447;-81
2021/11/26 06:37:33;;;;;;;1.13;1.13;;;1.20;99.90;;;;;;5035509;28;20454;-81
2021/11/26 06:40:02;;;;;;;0.50;0.50;;;1.20;99.90;;;;;;5035545;28;20887;-81
2021/11/26 06:42:29;;;;;;;0.70;0.70;;;1.20;99.90;;;;;;5035472;28;20447;-81
2021/11/26 06:44:56;;;;;;;0.60;0.60;;;1.20;99.90;;;;;;5035325;28;20451;-81
2021/11/26 06:47:23;;;;;;;0.80;0.80;;;1.20;99.90;;;;;;5034984;28;20435;-81
2021/11/26 06:49:49;;;;;;;0.97;0.97;;;1.20;99.90;;;;;;5035188;28;20445;-81
2021/11/26 06:52:16;;;;;;;0.30;0.30;;;1.20;99.90;;;;;;5035568;28;20453;-81
2021/11/26 06:54:44;;;;;;;0.70;0.70;;;1.20;99.90;;;;;;5034313;28;20483;-81
2021/11/26 06:57:12;;;;;;;1.07;1.00;;;1.30;99.90;;;;;;5034945;28;20930;-81
2021/11/26 06:59:39;;;;;;;1.30;1.30;;;1.30;99.90;;;;;;5034734;28;20996;-81
2021/11/26 07:02:06;;;;;;;0.30;0.30;;;1.30;99.90;;;;;;5034890;28;20439;-82
2021/11/26 07:04:33;;;;;;;0.70;0.70;;;1.30;99.90;;;;;;5034579;28;20800;-81
2021/11/26 07:07:00;;;;;;;1.67;1.67;;;1.30;99.90;;;;;;5034586;28;20445;-81
2021/11/26 07:09:27;;;;;;;1.70;1.70;;;1.30;99.90;;;;;;5034852;28;20470;-81
2021/11/26 07:11:54;;;;;;;1.27;1.27;;;1.30;99.90;;;;;;5034881;28;20449;-81
2021/11/26 07:14:22;;;;;;;0.80;0.80;;;1.30;99.90;;;;;;5035098;28;20495;-82
2021/11/26 07:16:49;;;;;;;0.83;0.83;;;1.30;99.90;;;;;;5034393;28;20489;-81
2021/11/26 07:19:16;;;;;;;1.53;0.70;;;1.30;99.90;;;;;;5034647;28;20470;-81
2021/11/26 07:21:44;;;;;;;0.30;0.30;;;1.40;99.90;;;;;;5034304;28;20836;-81
2021/11/26 07:24:11;;;;;;;0.30;0.30;;;1.30;99.90;;;;;;5034416;28;20549;-81
2021/11/26 07:26:37;;;;;;;0.53;0.53;;;1.40;99.90;;;;;;5034625;28;20454;-81
2021/11/26 07:29:04;;;;;;;0.30;0.30;;;1.40;99.90;;;;;;5034876;28;20474;-81
2021/11/26 07:31:32;;;;;;;1.13;1.13;;;1.40;99.90;;;;;;5034567;28;20411;-81
2021/11/26 07:33:59;;;;;;;0.30;0.30;;;1.40;99.90;;;;;;5034153;28;20842;-81
2021/11/26 07:36:28;;;;;;;0.90;0.90;;;1.40;99.90;;;;;;5034698;28;20461;-81
2021/11/26 07:38:56;;;;;;;1.37;0.67;;;1.40;99.90;;;;;;5034324;28;20443;-81
2021/11/26 07:41:23;;;;;;;0.63;0.40;;;1.40;99.90;;;;;;5034371;28;20427;-81
2021/11/26 07:43:50;;;;;;;0.40;0.40;;;1.40;99.90;;;;;;5035138;28;20427;-81
2021/11/26 07:46:17;;;;;;;0.97;0.93;;;1.40;99.90;;;;;;5034333;28;20431;-81
2021/11/26 07:48:45;;;;;;;0.97;0.97;;;1.40;99.90;;;;;;5033972;28;20789;-81
2021/11/26 07:51:12;;;;;;;0.30;0.30;;;1.50;99.90;;;;;;5034331;28;20447;-81
2021/11/26 07:53:39;;;;;;;0.50;0.50;;;1.50;99.90;;;;;;5034085;28;20489;-81
2021/11/26 07:56:05;;;;;;;0.30;0.30;;;1.50;99.90;;;;;;5033841;28;20518;-81
2021/11/26 07:58:32;;;;;;;0.30;0.30;;;1.50;99.90;;;;;;5033771;28;20447;-81
2021/11/26 08:00:59;;;;;;;0.30;0.20;;;1.50;99.90;;;;;;5033642;28;21008;-82
2021/11/26 08:03:26;;;;;;;0.30;0.30;;;1.50;99.90;;;;;;5033730;28;20442;-81
2021/11/26 08:05:56;;;;;;;0.60;0.60;;;1.50;99.90;;;;;;5033043;28;20455;-81
2021/11/26 08:08:22;;;;;;;0.37;0.37;;;1.60;99.90;;;;;;5034926;28;20546;-81
2021/11/26 08:10:49;;;;;;;0.70;0.60;;;1.60;99.90;;;;;;5033503;28;20463;-81
2021/11/26 08:13:16;;;;;;;1.13;1.13;;;1.60;99.90;;;;;;5033471;28;20824;-81
2021/11/26 08:15:43;;;;;;;0.60;0.60;;;1.60;99.90;;;;;;5033345;28;20486;-81
2021/11/26 08:18:10;;;;;;;0.40;0.40;;;1.60;99.90;;;;;;5033699;28;20431;-81
2021/11/26 08:20:37;;;;;;;2.83;1.60;;;1.70;99.90;;;;;;5033349;28;20806;-81
2021/11/26 08:23:07;;;;;;;0.30;0.30;;;1.70;99.90;;;;;;5033328;28;21004;-81
2021/11/26 08:25:36;;;;;;;0.30;0.30;;;1.60;99.90;;;;;;5033640;28;20439;-81
2021/11/26 08:28:04;;;;;;;0.30;0.30;;;1.60;99.90;;;;;;5033508;28;20447;-87
2021/11/26 08:30:30;;;;;;;0.40;0.40;;;1.70;99.90;;;;;;5033837;28;20474;-87
2021/11/26 08:32:57;;;;;;;0.30;0.30;;;1.70;99.90;;;;;;5033765;28;20442;-87
2021/11/26 08:35:25;;;;;;;0.50;0.50;;;1.70;99.90;;;;;;5033731;28;20478;-87
2021/11/26 08:37:53;;;;;;;0.30;0.20;;;1.70;99.90;;;;;;5033865;28;20455;-86
2021/11/26 08:40:21;;;;;;;0.73;0.73;;;1.70;99.90;;;;;;5034139;28;20989;-87
2021/11/26 08:42:49;;;;;;;0.40;0.40;;;1.80;99.90;;;;;;5033843;28;20455;-86
2021/11/26 08:45:19;;;;;;;0.57;0.40;;;1.80;99.90;;;;;;5033521;28;20439;-87
2021/11/26 08:47:46;;;;;;;1.40;1.40;;;1.90;99.90;;;;;;5033707;28;20946;-86
2021/11/26 08:50:16;;;;;;;0.30;0.30;;;1.90;99.90;;;;;;5033635;28;20473;-86
2021/11/26 08:52:43;;;;;;;0.30;0.30;;;1.90;99.90;;;;;;5033590;28;20850;-89
2021/11/26 08:55:14;;;;;;;0.30;0.30;;;1.70;99.90;;;;;;5034386;28;20471;-86
2021/11/26 08:57:49;;;;;;;1.13;1.13;;;1.70;99.90;;;;;;5033857;28;20439;-87
2021/11/26 09:00:18;;;;;;;0.30;0.30;;;1.70;99.90;;;;;;5033913;28;20557;-86
2021/11/26 09:02:44;;;;;;;0.90;0.90;;;1.80;99.90;;;;;;5033753;28;20437;-87
2021/11/26 09:05:11;;;;;;;1.03;1.03;;;1.90;99.90;;;;;;5033884;28;20439;-85
2021/11/26 09:07:38;;;;;;;1.73;1.63;;;1.90;99.90;;;;;;5044981;28;20435;-86
2021/11/26 09:10:05;;;;;;;0.43;0.43;;;2.10;99.90;;;;;;5034736;28;20473;-86
2021/11/26 09:12:32;;;;;;;0.30;0.30;;;2.10;99.90;;;;;;5037932;28;20439;-86
2021/11/26 09:15:00;;;;;;;1.93;1.13;;;2.20;99.90;;;;;;5037167;28;20854;-86
2021/11/26 09:17:27;;;;;;;1.43;1.33;;;2.20;99.90;;;;;;5037402;28;20417;-87
2021/11/26 09:19:54;;;;;;;0.80;0.80;;;2.10;99.90;;;;;;5037441;28;20481;-87
2021/11/26 09:22:21;;;;;;;1.27;1.20;;;2.10;99.90;;;;;;5036988;28;20454;-87
2021/11/26 09:24:48;;;;;;;0.30;0.30;;;2.10;99.90;;;;;;5037407;28;20447;-87
2021/11/26 09:27:14;;;;;;;0.50;0.50;;;2.10;99.90;;;;;;5037323;28;20454;-86
2021/11/26 09:29:44;;;;;;;2.73;0.83;;;2.10;99.90;;;;;;5037168;28;20476;-87
2021/11/26 09:32:13;;;;;;;1.07;1.07;;;2.00;99.90;;;;;;5037414;28;20482;-87
2021/11/26 09:34:40;;;;;;;2.40;2.30;;;2.00;99.90;;;;;;5036707;28;21003;-86
2021/11/26 09:37:07;;;;;;;1.83;1.77;;;2.00;99.90;;;;;;5037056;28;20419;-87
2021/11/26 09:39:34;;;;;;;2.10;2.00;;;1.90;99.90;;;;;;5036654;28;20458;-87
2021/11/26 09:42:01;;;;;;;1.67;1.67;;;1.90;99.90;;;;;;5037030;28;20446;-86
2021/11/26 09:44:32;;;;;;;1.23;1.23;;;2.00;99.90;;;;;;5037181;28;20435;-86
2021/11/26 09:46:59;;;;;;;0.53;0.50;;;2.00;99.90;;;;;;5036939;28;20435;-80
2021/11/26 09:49:27;;;;;;;1.40;0.70;;;2.00;99.90;;;;;;5036799;28;20478;-86
2021/11/26 09:51:54;;;;;;;0.40;0.40;;;2.00;99.90;;;;;;5037195;28;20438;-86
2021/11/26 09:54:21;;;;;;;0.40;0.40;;;2.10;99.90;;;;;;5036785;28;20471;-87
2021/11/26 09:56:48;;;;;;;0.77;0.77;;;2.10;99.90;;;;;;5036962;28;20445;-86
2021/11/26 09:59:15;;;;;;;0.47;0.47;;;2.00;99.90;;;;;;5036792;28;20474;-87
2021/11/26 10:01:42;;;;;;;1.53;0.80;;;2.00;99.90;;;;;;5036551;28;20443;-77
2021/11/26 10:04:17;;;;;;;1.40;0.97;;;2.00;99.90;;;;;;5036236;28;20430;-77
2021/11/26 10:06:45;;;;;;;0.30;0.30;;;2.10;99.90;;;;;;5036286;28;20460;-77
2021/11/26 10:09:13;;;;;;;0.30;0.30;;;2.10;99.90;;;;;;5035772;28;20985;-77
2021/11/26 10:11:47;;;;;;;1.57;1.57;;;2.20;99.90;;;;;;5036094;28;20434;-77
2021/11/26 10:14:21;;;;;;;0.30;0.30;;;2.20;99.90;;;;;;5036036;28;20487;-77
2021/11/26 10:16:49;;;;;;;0.30;0.30;;;2.30;99.90;;;;;;5035810;28;20494;-77
2021/11/26 10:19:17;;;;;;;0.70;0.70;;;2.30;99.90;;;;;;5036032;28;20868;-77
2021/11/26 10:21:45;;;;;;;1.50;1.50;;;2.50;99.90;;;;;;5035895;28;20446;-77
2021/11/26 10:24:17;;;;;;;0.67;0.63;;;2.50;99.90;;;;;;5035875;28;20644;-79
2021/11/26 10:26:52;;;;;;;0.40;0.40;;;2.50;99.90;;;;;;5035485;28;20803;-80
2021/11/26 10:29:32;;;;;;;0.80;0.80;;;2.50;99.90;;;;;;5034609;28;20474;-80
2021/11/26 10:32:08;;;;;;;1.27;1.27;;;2.50;99.90;;;;;;5035379;28;20411;-80
2021/11/26 10:34:36;;;;;;;0.60;0.60;;;2.60;99.90;;;;;;5035300;28;20821;-79
2021/11/26 10:37:05;;;;;;;0.40;0.40;;;2.50;99.90;;;;;;5035854;28;20435;-78
2021/11/26 10:39:34;;;;;;;0.40;0.40;;;2.60;99.90;;;;;;5035404;28;20478;-78
2021/11/26 10:42:02;;;;;;;0.60;0.60;;;2.60;99.90;;;;;;5035233;28;20953;-87
2021/11/26 10:44:40;;;;;;;0.53;0.53;;;2.70;99.90;;;;;;5036356;28;20445;-89
2021/11/26 10:47:18;;;;;;;0.70;0.70;;;2.70;99.90;;;;;;5036713;28;20471;-89
2021/11/26 10:50:00;;;;;;;0.47;0.47;;;2.70;99.90;;;;;;5035941;28;21046;-89
2021/11/26 10:58:23;;;;;;;0.30;0.30;;;2.70;99.90;;;;;;5035587;28;20407;-80
2021/11/26 11:01:00;;;;;;;0.70;0.70;;;2.70;99.90;;;;;;5034897;28;20481;-77
2021/11/26 11:03:26;;;;;;;0.43;0.43;;;2.60;99.90;;;;;;5036030;28;20893;-89
2021/11/26 11:05:53;;;;;;;0.50;0.50;;;2.60;99.90;;;;;;5036370;28;20446;-89
2021/11/26 11:08:23;;;;;;;0.37;0.37;;;2.60;99.90;;;;;;5035460;28;20454;-84
2021/11/26 11:10:51;;;;;;;0.30;0.30;;;2.70;99.90;;;;;;5034954;28;20477;-81
2021/11/26 11:13:24;;;;;;;1.07;0.60;;;2.70;99.90;;;;;;5034508;28;20835;-80
2021/11/26 11:15:51;;;;;;;3.27;1.03;;;2.80;99.90;;;;;;5037379;28;20489;-80
2021/11/26 11:18:19;;;;;;;0.30;0.30;;;2.80;99.90;;;;;;5034878;28;20471;-80
2021/11/26 11:20:46;;;;;;;0.30;0.30;;;2.80;99.90;;;;;;5034561;28;20824;-80
2021/11/26 11:23:14;;;;;;;0.30;0.30;;;2.80;99.90;;;;;;5034759;28;20439;-80
2021/11/26 11:25:44;;;;;;;0.33;0.33;;;2.70;99.90;;;;;;5034927;28;20508;-88
2021/11/26 11:28:14;;;;;;;0.70;0.70;;;2.70;99.90;;;;;;5035700;28;20431;-89
2021/11/26 11:30:41;;;;;;;1.33;1.33;;;2.80;99.90;;;;;;5035544;28;20532;-88
2021/11/26 11:33:09;;;;;;;0.43;0.43;;;2.80;99.90;;;;;;5034574;28;20964;-78
2021/11/26 11:35:38;;;;;;;1.37;0.63;;;2.70;99.90;;;;;;5034412;28;20475;-78
2021/11/26 11:38:09;;;;;;;0.30;0.30;;;2.70;99.90;;;;;;5034437;28;20785;-77
2021/11/26 11:40:40;;;;;;;0.60;0.60;;;2.70;99.90;;;;;;5033914;28;20981;-77
2021/11/26 11:43:11;;;;;;;3.67;3.40;;;2.70;99.90;;;;;;5034557;28;20521;-79
2021/11/26 11:45:39;;;;;;;0.60;0.60;;;2.70;99.90;;;;;;5034575;28;20447;-79
2021/11/26 11:48:09;;;;;;;0.30;0.30;;;2.70;99.90;;;;;;5034457;28;20438;-83
2021/11/26 11:50:42;;;;;;;0.73;0.70;;;2.70;99.90;;;;;;5034243;28;20479;-80
2021/11/26 11:53:21;;;;;;;0.83;0.83;;;2.80;99.90;;;;;;5039426;28;20411;-88
2021/11/26 11:55:48;;;;;;;0.60;0.60;;;2.80;99.90;;;;;;5035226;28;20510;-90
2021/11/26 11:58:21;;;;;;;0.30;0.30;;;2.80;99.90;;;;;;5035024;28;20438;-81
2021/11/26 12:00:51;;;;;;;0.40;0.40;;;2.80;99.90;;;;;;5033994;28;20474;-77
2021/11/26 12:03:19;;;;;;;0.40;0.40;;;2.80;99.90;;;;;;5034048;28;20420;-77
2021/11/26 12:05:57;;;;;;;0.50;0.50;;;2.80;99.90;;;;;;5033672;28;20909;-77
2021/11/26 12:08:24;;;;;;;0.73;0.73;;;2.80;99.90;;;;;;5033884;28;20434;-77
2021/11/26 12:10:54;;;;;;;0.37;0.37;;;2.80;99.90;;;;;;5033631;28;20570;-77
2021/11/26 12:13:31;;;;;;;1.17;1.07;;;2.90;99.90;;;;;;5033855;28;20565;-81
2021/11/26 12:16:06;;;;;;;2.63;2.43;;;2.80;99.90;;;;;;5033532;28;20494;-82
2021/11/26 12:18:41;;;;;;;4.63;0.60;;;2.80;99.90;;;;;;5033559;28;20882;-82
2021/11/26 12:26:21;;;;;;;0.53;0.53;;;2.80;99.90;;;;;;5112306;22;20464;-77
2021/11/26 12:28:54;;;;;;;0.70;0.70;;;2.90;99.90;;;;;;5033980;28;20542;-77
2021/11/26 12:31:27;;;;;;;1.70;1.13;;;2.90;99.90;;;;;;5488072;22;20491;-79
2021/11/26 12:33:59;;;;;;;0.30;0.30;;;3.00;99.90;;;;;;5033703;28;20516;-79
2021/11/26 12:36:41;;;;;;;2.40;2.20;;;3.00;99.90;;;;;;5033563;28;20466;-81
2021/11/26 12:39:10;;;;;;;0.40;0.40;;;3.10;99.90;;;;;;5033533;28;20477;-81
2021/11/26 12:41:40;;;;;;;0.57;0.57;;;3.10;99.90;;;;;;5033525;28;20438;-81
2021/11/26 12:44:14;;;;;;;0.40;0.40;;;3.10;99.90;;;;;;5033445;28;20438;-82
2021/11/26 12:46:41;;;;;;;0.67;0.67;;;3.10;99.90;;;;;;5033489;28;20432;-81
2021/11/26 12:49:26;;;;;;;1.53;1.10;;;3.00;99.90;;;;;;5033495;28;20536;-81
2021/11/26 12:51:54;;;;;;;0.30;0.30;;;3.00;99.90;;;;;;5033312;28;20427;-81
2021/11/26 12:54:26;;;;;;;0.30;0.30;;;3.00;99.90;;;;;;5033375;28;20431;-81
2021/11/26 12:56:54;;;;;;;0.50;0.50;;;3.10;99.90;;;;;;5033109;28;20462;-82
2021/11/26 12:59:30;;;;;;;1.17;1.17;;;3.00;99.90;;;;;;5033346;28;20466;-82
2021/11/26 13:01:57;;;;;;;1.07;0.37;;;3.10;99.90;;;;;;5033528;28;20438;-82
2021/11/26 13:04:23;;;;;;;0.40;0.40;;;3.00;99.90;;;;;;5032926;28;20973;-82
2021/11/26 13:07:01;;;;;;;0.63;0.63;;;3.00;99.90;;;;;;5036845;28;20481;-81
2021/11/26 13:09:39;;;;;;;0.40;0.40;;;3.10;99.90;;;;;;5033368;28;20467;-82
2021/11/26 13:12:06;;;;;;;1.03;0.93;;;3.20;99.90;;;;;;5033254;28;20442;-81
2021/11/26 13:14:44;;;;;;;0.40;0.40;;;3.20;99.90;;;;;;5033173;28;20825;-81